Norfolk, Virginia
Traffic Map
Current Weather Conditions
Norfolk, Virginia
Clear
Clear
59°
Feels Like: 59°
Wind Chill: 59° Ceiling: Unl
Heat Index: 59° Visibility: 10mi
Dew Point: 48° Wind: 6mph
Humidity: 67% Direction: 220° (SW)
Pressure: 30.24in Gusts: 0mph
Raw Report DataKORF 230351Z 22005KT 10SM CLR 15/09 A3024 RMK AO2 SLP240 T01500089
Traffic Incident Summary
Active as of:
Severity:
Category:
InformationThere was an issue retrieving the traffic information for this location. Please try a different location or try again shortly.
Advertisements
Track Severe Weather on mobile